createdAt,value
2022-10-19T00:01:25.518Z,46.67
2022-10-19T00:03:56.446Z,46.53
2022-10-19T00:06:26.974Z,45.17
2022-10-19T00:09:04.525Z,46.60
2022-10-19T00:11:35.327Z,58.53
2022-10-19T00:14:04.747Z,49.10
2022-10-19T00:16:37.420Z,40.55
2022-10-19T00:19:10.513Z,57.55
2022-10-19T00:21:40.897Z,48.85
2022-10-19T00:24:10.440Z,53.40
2022-10-19T00:26:39.326Z,56.88
2022-10-19T00:29:08.449Z,45.58
2022-10-19T00:31:38.024Z,48.25
2022-10-19T00:34:06.790Z,48.33
2022-10-19T00:36:38.139Z,50.47
2022-10-19T00:39:08.464Z,45.78
2022-10-19T00:41:38.269Z,63.15
2022-10-19T00:44:17.110Z,64.15
2022-10-19T00:46:50.053Z,60.70
2022-10-19T00:49:28.657Z,49.47
2022-10-19T00:52:05.036Z,59.65
2022-10-19T00:54:35.048Z,60.38
2022-10-19T00:57:06.359Z,59.55
2022-10-19T00:59:35.983Z,40.33
2022-10-19T01:02:06.406Z,53.72
2022-10-19T01:04:39.470Z,56.55
2022-10-19T01:07:09.572Z,53.80
2022-10-19T01:09:38.060Z,62.78
2022-10-19T01:12:35.069Z,53.38
2022-10-19T01:15:09.678Z,50.10
2022-10-19T01:17:47.460Z,63.65
2022-10-19T01:20:45.989Z,59.33
2022-10-19T01:23:42.402Z,63.22
2022-10-19T01:26:16.503Z,55.33
2022-10-19T01:29:25.620Z,44.70
2022-10-19T01:32:41.388Z,53.72
2022-10-19T01:35:21.448Z,57.05
2022-10-19T01:38:09.130Z,50.35
2022-10-19T01:40:55.696Z,40.67
2022-10-19T01:43:34.988Z,58.70
2022-10-19T01:46:18.345Z,47.08
2022-10-19T01:48:56.226Z,37.17
2022-10-19T01:51:35.580Z,38.33
2022-10-19T01:54:13.289Z,44.15
2022-10-19T01:56:45.329Z,46.85
2022-10-19T01:59:15.724Z,45.83
2022-10-19T02:01:47.979Z,47.22
2022-10-19T02:04:20.272Z,40.92
2022-10-19T02:06:48.609Z,56.20
2022-10-19T02:09:19.571Z,58.88
2022-10-19T02:12:00.983Z,57.65
2022-10-19T02:14:35.294Z,43.47
2022-10-19T02:17:09.476Z,67.65
2022-10-19T02:19:38.535Z,57.72
2022-10-19T02:22:08.494Z,44.95
2022-10-19T02:24:36.964Z,54.28
2022-10-19T02:27:08.004Z,63.65
2022-10-19T02:29:38.574Z,54.70
2022-10-19T02:32:08.041Z,62.67
2022-10-19T02:34:38.071Z,67.50
2022-10-19T02:37:08.199Z,45.15
2022-10-19T02:39:36.786Z,61.33
2022-10-19T02:42:21.235Z,53.40
2022-10-19T02:44:59.496Z,56.13
2022-10-19T02:47:33.309Z,48.03
2022-10-19T02:50:02.634Z,76.50
2022-10-19T02:52:31.651Z,47.67
2022-10-19T02:55:00.208Z,72.30
2022-10-19T02:57:28.948Z,66.53
2022-10-19T02:59:57.421Z,80.72
2022-10-19T03:02:26.656Z,59.83
2022-10-19T03:04:55.116Z,45.92
2022-10-19T03:07:23.456Z,63.03
2022-10-19T03:09:52.234Z,56.25
2022-10-19T03:12:20.796Z,61.50
2022-10-19T03:14:49.353Z,66.55
2022-10-19T03:17:17.677Z,54.50
2022-10-19T03:19:46.479Z,57.08
2022-10-19T03:22:18.765Z,55.88
2022-10-19T03:24:47.239Z,52.13
2022-10-19T03:27:15.708Z,59.10
2022-10-19T03:29:44.280Z,41.95
2022-10-19T03:32:12.790Z,49.00
2022-10-19T03:34:44.219Z,59.10
2022-10-19T03:37:14.693Z,54.30
2022-10-19T03:39:43.148Z,77.10
2022-10-19T03:42:11.688Z,68.03
2022-10-19T03:44:40.165Z,76.00
2022-10-19T03:47:08.605Z,71.88
2022-10-19T03:49:39.548Z,69.65
2022-10-19T03:52:11.246Z,77.82
2022-10-19T03:54:39.895Z,62.97
2022-10-19T03:57:07.842Z,64.45
2022-10-19T03:59:36.300Z,66.70
2022-10-19T04:02:05.304Z,78.43
2022-10-19T04:04:33.894Z,73.45
2022-10-19T04:07:02.441Z,61.90
2022-10-19T04:09:31.067Z,54.35
2022-10-19T04:11:59.158Z,58.63
2022-10-19T04:14:33.068Z,64.05
2022-10-19T04:17:08.059Z,74.97
2022-10-19T04:19:36.528Z,80.60
2022-10-19T04:22:05.419Z,57.83
2022-10-19T04:24:34.038Z,77.57
2022-10-19T04:27:03.158Z,59.35
2022-10-19T04:29:31.670Z,62.05
2022-10-19T04:32:00.946Z,67.55
2022-10-19T04:34:29.448Z,72.63
2022-10-19T04:37:00.627Z,58.35
2022-10-19T04:39:29.174Z,58.70
2022-10-19T04:41:57.710Z,67.47
2022-10-19T04:44:26.335Z,53.80
2022-10-19T04:46:54.811Z,65.22
2022-10-19T04:49:23.391Z,68.70
2022-10-19T04:51:51.899Z,79.68
2022-10-19T04:54:20.362Z,69.28
2022-10-19T04:56:48.817Z,59.40
2022-10-19T04:59:17.439Z,74.07
2022-10-19T05:01:47.350Z,50.33
2022-10-19T05:04:16.006Z,61.63
2022-10-19T05:06:44.558Z,59.80
2022-10-19T05:09:13.196Z,63.60
2022-10-19T05:11:41.727Z,62.90
2022-10-19T05:14:10.327Z,52.70
2022-10-19T05:16:38.713Z,58.85
2022-10-19T05:19:07.184Z,50.05
2022-10-19T05:21:35.751Z,54.20
2022-10-19T05:24:04.588Z,48.08
2022-10-19T05:26:33.290Z,57.13
2022-10-19T05:29:04.008Z,60.78
2022-10-19T05:31:34.914Z,42.20
2022-10-19T05:34:05.081Z,70.43
2022-10-19T05:36:39.479Z,55.85
2022-10-19T05:39:10.945Z,43.70
2022-10-19T05:41:39.567Z,44.95
2022-10-19T05:44:07.918Z,40.65
2022-10-19T05:46:36.519Z,60.13
2022-10-19T05:49:05.249Z,42.85
2022-10-19T05:51:34.034Z,41.85
2022-10-19T05:54:02.095Z,48.45
2022-10-19T05:56:32.697Z,42.35
2022-10-19T05:59:04.564Z,37.00
2022-10-19T06:01:34.447Z,35.53
2022-10-19T06:04:04.599Z,48.17
2022-10-19T06:06:33.345Z,31.10
2022-10-19T06:09:02.362Z,29.17
2022-10-19T06:11:36.263Z,45.75
2022-10-19T06:14:07.589Z,37.75
2022-10-19T06:16:36.818Z,35.55
2022-10-19T06:19:06.608Z,49.58
2022-10-19T06:21:37.266Z,32.58
2022-10-19T06:24:08.011Z,40.28
2022-10-19T06:26:36.929Z,33.42
2022-10-19T06:29:06.288Z,37.25
2022-10-19T06:31:37.716Z,44.15
2022-10-19T06:34:06.715Z,36.03
2022-10-19T06:36:35.853Z,35.72
2022-10-19T06:39:05.109Z,36.38
2022-10-19T06:41:35.449Z,39.72
2022-10-19T06:44:03.788Z,29.05
2022-10-19T06:46:33.627Z,38.90
2022-10-19T06:49:03.687Z,34.92
2022-10-19T06:51:35.079Z,34.95
2022-10-19T06:54:04.564Z,46.60
2022-10-19T06:56:36.355Z,30.42
2022-10-19T06:59:05.040Z,40.65
2022-10-19T07:01:33.530Z,50.97
2022-10-19T07:04:02.137Z,34.05
2022-10-19T07:06:30.836Z,31.73
2022-10-19T07:08:59.425Z,38.05
2022-10-19T07:11:27.982Z,35.53
2022-10-19T07:13:56.692Z,39.45
2022-10-19T07:16:25.202Z,30.20
2022-10-19T07:18:54.914Z,43.47
2022-10-19T07:21:24.591Z,32.90
2022-10-19T07:23:52.937Z,39.47
2022-10-19T07:26:25.890Z,42.10
2022-10-19T07:28:56.367Z,31.38
2022-10-19T07:31:26.362Z,35.45
2022-10-19T07:33:56.584Z,40.10
2022-10-19T07:36:26.666Z,35.50
2022-10-19T07:38:54.780Z,33.88
2022-10-19T07:41:25.499Z,33.20
2022-10-19T07:43:55.328Z,32.00
2022-10-19T07:46:30.494Z,35.40
2022-10-19T07:48:59.048Z,34.63
2022-10-19T07:53:58.595Z,32.00
2022-10-19T07:56:29.061Z,36.33
2022-10-19T07:58:59.575Z,28.23
2022-10-19T08:01:30.891Z,45.83
2022-10-19T08:06:49.740Z,31.25
2022-10-19T08:09:39.940Z,38.58
2022-10-19T08:12:11.185Z,24.13
2022-10-19T08:14:43.303Z,41.08
2022-10-19T08:17:17.974Z,44.97
2022-10-19T08:19:48.384Z,28.98
2022-10-19T08:22:17.096Z,30.60
2022-10-19T08:24:46.154Z,31.00
2022-10-19T08:27:16.174Z,34.53
2022-10-19T08:29:44.749Z,43.92
2022-10-19T08:32:13.214Z,39.50
2022-10-19T08:34:41.817Z,40.25
2022-10-19T08:37:20.109Z,37.38
2022-10-19T08:39:58.882Z,38.65
2022-10-19T08:42:54.138Z,29.23
2022-10-19T08:45:37.830Z,31.92
2022-10-19T08:50:41.457Z,24.40
2022-10-19T08:53:28.554Z,40.17
2022-10-19T08:56:04.709Z,42.20
2022-10-19T08:58:51.627Z,35.08
2022-10-19T09:01:23.153Z,36.72
2022-10-19T09:04:06.314Z,36.28
2022-10-19T09:07:10.160Z,33.00
2022-10-19T09:09:48.029Z,33.15
2022-10-19T09:12:21.283Z,34.40
2022-10-19T09:15:02.320Z,40.47
2022-10-19T09:17:33.741Z,31.50
2022-10-19T09:20:24.679Z,27.33
2022-10-19T09:23:06.718Z,25.17
2022-10-19T09:25:40.296Z,35.75
2022-10-19T09:28:39.920Z,45.22
2022-10-19T09:31:44.106Z,34.45
2022-10-19T09:34:38.127Z,38.15
2022-10-19T09:39:36.558Z,29.88
2022-10-19T09:42:31.849Z,44.33
2022-10-19T09:45:03.371Z,32.55
2022-10-19T09:47:35.266Z,41.03
2022-10-19T09:50:09.768Z,40.75
2022-10-19T09:52:41.197Z,48.78
2022-10-19T09:55:27.990Z,49.38
2022-10-19T09:58:03.334Z,36.15
2022-10-19T10:00:43.531Z,48.38
2022-10-19T10:03:24.120Z,50.15
2022-10-19T10:05:53.223Z,36.85
2022-10-19T10:08:25.054Z,29.98
2022-10-19T10:11:13.333Z,44.08
2022-10-19T10:13:49.555Z,40.10
2022-10-19T10:16:21.808Z,35.45
2022-10-19T10:18:58.482Z,40.88
2022-10-19T10:21:36.592Z,31.70
2022-10-19T10:24:13.422Z,46.08
2022-10-19T10:26:44.644Z,32.15
2022-10-19T10:29:31.470Z,34.05
2022-10-19T10:32:21.677Z,41.40
2022-10-19T10:35:01.010Z,43.70
2022-10-19T10:37:49.468Z,30.08
2022-10-19T10:40:40.084Z,31.40
2022-10-19T10:43:18.202Z,33.40
2022-10-19T10:45:51.187Z,30.35
2022-10-19T10:48:28.239Z,45.00
2022-10-19T10:50:58.331Z,30.40
2022-10-19T10:53:47.432Z,46.45
2022-10-19T10:56:22.309Z,33.80
2022-10-19T10:59:00.867Z,31.55
2022-10-19T11:01:46.722Z,37.67
2022-10-19T11:04:30.110Z,41.38
2022-10-19T11:07:12.047Z,32.92
2022-10-19T11:09:46.319Z,34.72
2022-10-19T11:12:20.680Z,41.72
2022-10-19T11:15:02.769Z,34.22
2022-10-19T11:17:35.804Z,39.05
2022-10-19T11:20:06.895Z,33.53
2022-10-19T11:23:13.771Z,35.75
2022-10-19T11:25:45.353Z,36.00
2022-10-19T11:28:27.756Z,40.17
2022-10-19T11:31:03.959Z,41.08
2022-10-19T11:33:38.095Z,40.10
2022-10-19T11:36:15.642Z,41.35
2022-10-19T11:39:04.276Z,39.83
2022-10-19T11:42:04.810Z,45.60
2022-10-19T11:45:02.409Z,44.72
2022-10-19T11:47:55.976Z,44.20
2022-10-19T11:50:53.891Z,38.80
2022-10-19T11:53:58.979Z,42.78
2022-10-19T11:56:51.501Z,50.33
2022-10-19T11:59:49.268Z,35.80
2022-10-19T12:02:54.560Z,40.15
2022-10-19T12:05:29.200Z,48.90
2022-10-19T12:08:38.883Z,36.65
2022-10-19T12:11:10.248Z,41.90
2022-10-19T12:13:51.723Z,54.47
2022-10-19T12:16:23.133Z,42.15
2022-10-19T12:18:56.747Z,59.92
2022-10-19T12:21:32.613Z,42.72
2022-10-19T12:24:05.557Z,36.28
2022-10-19T12:26:38.380Z,41.08
2022-10-19T12:29:17.607Z,43.67
2022-10-19T12:31:47.714Z,32.72
2022-10-19T12:34:33.969Z,39.60
2022-10-19T12:37:30.942Z,35.33
2022-10-19T12:40:22.790Z,35.28
2022-10-19T12:43:09.726Z,37.42
2022-10-19T12:45:53.827Z,35.70
2022-10-19T12:48:25.782Z,45.47
2022-10-19T12:50:58.520Z,32.05
2022-10-19T12:53:32.809Z,40.83
2022-10-19T12:56:04.233Z,40.13
2022-10-19T12:58:48.155Z,42.53
2022-10-19T13:01:36.940Z,40.53
2022-10-19T13:04:19.622Z,38.47
2022-10-19T13:07:12.426Z,27.40
2022-10-19T13:09:44.472Z,39.00
2022-10-19T13:12:19.947Z,31.65
2022-10-19T13:14:53.574Z,49.88
2022-10-19T13:17:47.510Z,32.53
2022-10-19T13:20:15.449Z,33.97
2022-10-19T13:22:52.319Z,47.42
2022-10-19T13:25:29.786Z,42.47
2022-10-19T13:28:19.113Z,44.85
2022-10-19T13:30:47.273Z,30.95
2022-10-19T13:33:31.677Z,35.40
2022-10-19T13:36:03.462Z,51.25
2022-10-19T13:41:26.885Z,40.15
2022-10-19T13:44:21.468Z,42.22
2022-10-19T13:47:13.574Z,30.25
2022-10-19T13:49:54.532Z,40.80
2022-10-19T13:52:59.885Z,38.65
2022-10-19T13:56:03.151Z,36.25
2022-10-19T13:58:46.322Z,38.97
2022-10-19T14:01:45.669Z,36.13
2022-10-19T14:05:09.499Z,28.00
2022-10-19T14:08:03.173Z,34.28
2022-10-19T14:10:43.474Z,21.52
2022-10-19T14:13:23.698Z,35.35
2022-10-19T14:15:58.452Z,37.85
2022-10-19T14:18:31.591Z,44.97
2022-10-19T14:21:11.447Z,38.97
2022-10-19T14:23:41.614Z,31.65
2022-10-19T14:26:20.976Z,35.47
2022-10-19T14:28:56.311Z,33.92
2022-10-19T14:31:31.329Z,43.40
2022-10-19T14:34:03.752Z,45.50
2022-10-19T14:36:46.597Z,33.85
2022-10-19T14:39:32.108Z,43.47
2022-10-19T14:42:12.307Z,35.20
2022-10-19T14:44:44.061Z,31.42
2022-10-19T14:47:23.183Z,34.40
2022-10-19T14:49:52.519Z,47.55
2022-10-19T14:52:31.137Z,31.60
2022-10-19T14:55:03.163Z,60.80
2022-10-19T14:57:36.588Z,46.58
2022-10-19T15:00:16.597Z,42.15
2022-10-19T15:02:49.450Z,37.45
2022-10-19T15:05:22.825Z,46.22
2022-10-19T15:10:44.493Z,46.58
2022-10-19T15:13:32.562Z,33.90
2022-10-19T15:16:01.097Z,38.72
2022-10-19T15:18:48.923Z,43.75
2022-10-19T15:21:22.976Z,34.88
2022-10-19T15:23:53.606Z,48.85
2022-10-19T15:26:28.258Z,46.28
2022-10-19T15:29:08.805Z,47.33
2022-10-19T15:31:37.427Z,53.38
2022-10-19T15:34:06.698Z,55.95
2022-10-19T15:36:35.310Z,54.85
2022-10-19T15:39:17.998Z,45.55
2022-10-19T15:41:53.232Z,58.40
2022-10-19T15:44:47.101Z,47.88
2022-10-19T15:50:00.293Z,50.28
2022-10-19T15:52:31.658Z,53.30
2022-10-19T15:55:01.989Z,40.42
2022-10-19T15:57:36.370Z,58.72
2022-10-19T16:00:16.374Z,51.13
2022-10-19T16:02:44.967Z,94.45
2022-10-19T16:05:13.451Z,103.78
2022-10-19T16:07:43.303Z,91.22
2022-10-19T16:10:23.534Z,81.40
2022-10-19T16:12:52.177Z,70.43
2022-10-19T16:15:25.766Z,62.70
2022-10-19T16:17:57.654Z,57.92
2022-10-19T16:20:28.194Z,53.17
2022-10-19T16:22:57.033Z,53.83
2022-10-19T16:25:26.137Z,59.85
2022-10-19T16:27:54.628Z,43.85
2022-10-19T16:30:23.183Z,41.95
2022-10-19T16:32:51.712Z,61.10
2022-10-19T16:35:19.601Z,54.70
2022-10-19T16:37:48.130Z,57.55
2022-10-19T16:40:16.749Z,44.40
2022-10-19T16:42:45.259Z,39.25
2022-10-19T16:45:13.850Z,47.80
2022-10-19T16:47:42.214Z,38.60
2022-10-19T16:50:12.614Z,33.78
2022-10-19T16:52:41.162Z,50.92
2022-10-19T16:55:10.266Z,33.75
2022-10-19T16:57:39.044Z,41.45
2022-10-19T17:00:11.044Z,46.60
2022-10-19T17:02:41.945Z,33.20
2022-10-19T17:05:12.933Z,38.90
2022-10-19T17:07:41.548Z,40.22
2022-10-19T17:10:10.406Z,57.20
2022-10-19T17:12:42.132Z,39.22
2022-10-19T17:15:40.920Z,49.47
2022-10-19T17:18:00.929Z,43.63
2022-10-19T17:20:29.403Z,38.83
2022-10-19T17:22:58.446Z,46.85
2022-10-19T17:25:28.870Z,41.00
2022-10-19T17:27:57.771Z,44.30
2022-10-19T17:30:26.251Z,36.58
2022-10-19T17:32:54.857Z,40.85
2022-10-19T17:35:23.306Z,44.30
2022-10-19T17:37:51.821Z,38.50
2022-10-19T17:40:20.354Z,37.17
2022-10-19T17:42:48.801Z,43.30
2022-10-19T17:45:17.321Z,54.80
2022-10-19T17:47:45.228Z,41.38
2022-10-19T17:50:13.758Z,42.80
2022-10-19T17:52:42.217Z,42.55
2022-10-19T17:55:12.845Z,33.90
2022-10-19T17:57:41.822Z,43.13
2022-10-19T18:00:10.630Z,34.80
2022-10-19T18:02:39.196Z,37.83
2022-10-19T18:05:08.077Z,34.03
2022-10-19T18:07:36.746Z,33.72
2022-10-19T18:10:05.827Z,60.33
2022-10-19T18:12:34.290Z,42.47
2022-10-19T18:15:02.903Z,30.92
2022-10-19T18:17:31.528Z,42.38
2022-10-19T18:19:59.706Z,34.65
2022-10-19T18:22:28.823Z,35.53
2022-10-19T18:24:57.364Z,28.30
2022-10-19T18:27:25.933Z,31.27
2022-10-19T18:29:53.928Z,35.83
2022-10-19T18:32:22.403Z,28.20
2022-10-19T18:34:51.010Z,36.90
2022-10-19T18:37:19.526Z,31.20
2022-10-19T18:39:48.342Z,31.77
2022-10-19T18:42:17.665Z,36.00
2022-10-19T18:44:46.252Z,35.22
2022-10-19T18:47:14.763Z,57.88
2022-10-19T18:49:43.275Z,58.63
2022-10-19T18:52:11.824Z,42.83
2022-10-19T18:54:40.397Z,39.50
2022-10-19T18:57:08.890Z,35.53
2022-10-19T18:59:37.517Z,29.42
2022-10-19T19:02:13.575Z,30.85
2022-10-19T19:04:50.811Z,37.15
2022-10-19T19:07:20.675Z,34.67
2022-10-19T19:09:49.213Z,31.73
2022-10-19T19:12:17.811Z,33.22
2022-10-19T19:14:46.203Z,64.50
2022-10-19T19:17:14.664Z,29.40
2022-10-19T19:19:43.344Z,35.80
2022-10-19T19:22:12.248Z,34.92
2022-10-19T19:24:40.863Z,44.33
2022-10-19T19:27:09.644Z,45.22
2022-10-19T19:29:38.167Z,33.45
2022-10-19T19:32:06.956Z,32.28
2022-10-19T19:34:35.506Z,29.83
2022-10-19T19:37:07.250Z,39.90
2022-10-19T19:39:37.520Z,33.97
2022-10-19T19:42:06.125Z,35.85
2022-10-19T19:44:34.659Z,40.40
2022-10-19T19:47:03.307Z,40.05
2022-10-19T19:49:31.874Z,31.50
2022-10-19T19:52:00.369Z,32.95
2022-10-19T19:54:28.880Z,45.78
2022-10-19T19:56:57.485Z,31.60
2022-10-19T19:59:27.431Z,42.30
2022-10-19T20:01:55.996Z,42.70
2022-10-19T20:04:24.682Z,26.70
2022-10-19T20:06:53.159Z,34.97
2022-10-19T20:09:21.333Z,40.70
2022-10-19T20:11:49.876Z,29.35
2022-10-19T20:14:19.978Z,24.55
2022-10-19T20:16:48.426Z,56.50
2022-10-19T20:19:17.528Z,47.45
2022-10-19T20:21:46.422Z,35.22
2022-10-19T20:24:14.951Z,34.80
2022-10-19T20:26:43.460Z,36.10
2022-10-19T20:29:11.958Z,28.83
2022-10-19T20:31:41.575Z,27.45
2022-10-19T20:34:15.151Z,35.67
2022-10-19T20:36:44.107Z,28.00
2022-10-19T20:39:12.716Z,40.75
2022-10-19T20:41:41.251Z,27.70
2022-10-19T20:44:09.747Z,28.00
2022-10-19T20:46:38.419Z,35.97
2022-10-19T20:49:08.641Z,26.27
2022-10-19T20:51:40.265Z,29.27
2022-10-19T20:54:13.382Z,28.25
2022-10-19T20:56:43.140Z,39.30
2022-10-19T20:59:17.454Z,26.05
2022-10-19T21:01:47.928Z,25.17
2022-10-19T21:04:17.474Z,28.52
2022-10-19T21:06:48.526Z,36.13
2022-10-19T21:09:19.450Z,33.08
2022-10-19T21:11:49.066Z,34.00
2022-10-19T21:14:25.460Z,47.70
2022-10-19T21:16:57.820Z,36.38
2022-10-19T21:19:28.750Z,27.00
2022-10-19T21:22:03.196Z,35.00
2022-10-19T21:24:37.398Z,43.88
2022-10-19T21:27:10.261Z,46.70
2022-10-19T21:29:39.111Z,32.67
2022-10-19T21:32:07.591Z,37.83
2022-10-19T21:34:36.622Z,34.03
2022-10-19T21:37:05.379Z,47.70
2022-10-19T21:39:33.946Z,50.47
2022-10-19T21:42:02.508Z,28.30
2022-10-19T21:44:31.009Z,37.90
2022-10-19T21:46:59.465Z,39.47
2022-10-19T21:49:27.952Z,27.83
2022-10-19T21:51:56.682Z,43.95
2022-10-19T21:54:26.672Z,30.38
2022-10-19T21:56:57.199Z,36.63
2022-10-19T21:59:26.398Z,29.23
2022-10-19T22:01:56.227Z,24.20
2022-10-19T22:04:25.645Z,30.23
2022-10-19T22:06:54.193Z,30.90
2022-10-19T22:09:24.005Z,32.63
2022-10-19T22:11:52.744Z,32.17
2022-10-19T22:14:22.632Z,24.27
2022-10-19T22:16:51.147Z,29.73
2022-10-19T22:19:19.682Z,27.10
2022-10-19T22:21:49.001Z,37.40
2022-10-19T22:24:17.389Z,42.75
2022-10-19T22:26:48.174Z,43.50
2022-10-19T22:29:16.933Z,31.20
2022-10-19T22:31:46.596Z,29.92
2022-10-19T22:34:18.885Z,34.78
2022-10-19T22:36:47.357Z,34.53
2022-10-19T22:39:15.991Z,34.72
2022-10-19T22:41:44.637Z,31.23
2022-10-19T22:44:13.372Z,32.63
2022-10-19T22:46:41.855Z,38.40
2022-10-19T22:49:10.606Z,32.05
2022-10-19T22:51:39.118Z,35.10
2022-10-19T22:54:07.502Z,50.20
2022-10-19T22:56:36.040Z,56.22
2022-10-19T22:59:06.591Z,58.53
2022-10-19T23:01:35.348Z,59.00
2022-10-19T23:04:04.186Z,48.42
2022-10-19T23:06:32.775Z,46.05
2022-10-19T23:09:01.307Z,48.80
2022-10-19T23:11:29.994Z,45.25
2022-10-19T23:13:58.482Z,36.47
2022-10-19T23:19:00.234Z,39.67
2022-10-19T23:21:28.802Z,40.72
2022-10-19T23:23:57.877Z,27.20
2022-10-19T23:26:26.509Z,35.65
2022-10-19T23:28:55.026Z,38.88
2022-10-19T23:31:31.365Z,28.13
2022-10-19T23:33:59.854Z,40.88
2022-10-19T23:36:30.200Z,32.35
2022-10-19T23:39:00.334Z,36.92
2022-10-19T23:41:28.682Z,32.38
2022-10-19T23:43:57.295Z,36.05
2022-10-19T23:46:25.947Z,65.05
2022-10-19T23:48:54.516Z,37.20
2022-10-19T23:51:23.859Z,39.83
2022-10-19T23:53:53.958Z,27.70
2022-10-19T23:56:30.453Z,40.33
2022-10-19T23:58:59.019Z,30.75
